Amherst, Massachusetts
Current Conditions -  °F | °C
As of 6:58 AM on Thursday 27 Nov 2014 (Local Time) from KCEF Reporting Station
Overcast Overcast  
Wind Chill: 27°   Ceiling: 7000
Heat Index: 31°   Visibility: 10mi
Dew Point: 30°   Wind: 5mph
Humidity: 94%   Direction: 310°NW
Pressure: 29.88"   Gusts: NA
Location:  42.38°N, 72.52°W
Report Text: KCEF 271158Z AUTO 31004KT 10SM OVC070 00/M01 A2988 RMK AO2 SLP127 60001 70109 T10031011 10006 21008 52017
Loading
Personal Weather Stations






























Interactive Weather Map New forecast layout! Learn more

10-Day Weather Forecast

Advertisements
Track Severe Weather on mobile